Delta Shores Airport


Codes: 00ID/
Name: Delta Shores Airport
City: Clark Fork
Country: United States
Elevation: 2064 ft.

Photos at Delta Shores Airport


   Photos courtesy of SpottingLog. You can add your own sightings and photos by signing up for a free trial today.



No photos found.

Weather at Delta Shores Airport


Time (UTC)DescriptionTempratureWindCloud coverageVisibilityPressureHumidity
18-Apr-2024 00:00Light Rain10°C7 mph, NW99%10000m1026hPa44%
18-Apr-2024 03:00Light Snow6°C2 mph, SE99%10000m1028hPa78%
18-Apr-2024 06:00Broken Clouds2°C2 mph, E83%10000m1030hPa94%
18-Apr-2024 09:00Overcast Clouds1°C2 mph, E86%10000m1030hPa96%
18-Apr-2024 12:00Overcast Clouds1°C2 mph, E85%4753m1030hPa98%
18-Apr-2024 15:00Light Snow4°C2 mph, E71%8593m1029hPa87%
18-Apr-2024 18:00Light Rain6°C2 mph, NE82%4332m1028hPa76%
18-Apr-2024 21:00Light Rain9°C2 mph, NE97%10000m1025hPa59%
19-Apr-2024 00:00Light Rain9°C4 mph, NE100%10000m1024hPa52%
19-Apr-2024 03:00Few Clouds3°C4 mph, E23%10000m1026hPa82%
19-Apr-2024 06:00Few Clouds1°C4 mph, E13%10000m1028hPa86%
19-Apr-2024 09:00Clear Sky0°C4 mph, E5%10000m1030hPa81%
19-Apr-2024 12:00Clear Sky-1°C7 mph, E4%10000m1031hPa80%
19-Apr-2024 15:00Clear Sky4°C4 mph, E2%10000m1029hPa48%
19-Apr-2024 18:00Clear Sky9°C7 mph, NE1%10000m1026hPa32%
19-Apr-2024 21:00Clear Sky11°C9 mph, NE2%10000m1024hPa29%
20-Apr-2024 00:00Few Clouds11°C9 mph, E12%10000m1023hPa28%
20-Apr-2024 03:00Few Clouds4°C7 mph, NE12%10000m1025hPa58%
20-Apr-2024 06:00Clear Sky1°C4 mph, E6%10000m1026hPa70%
20-Apr-2024 09:00Clear Sky0°C4 mph, E0%10000m1027hPa74%
20-Apr-2024 12:00Clear Sky-1°C4 mph, E0%10000m1028hPa76%
20-Apr-2024 15:00Clear Sky5°C4 mph, E1%10000m1025hPa46%
20-Apr-2024 18:00Clear Sky12°C4 mph, E10%10000m1022hPa31%
20-Apr-2024 21:00Broken Clouds16°C2 mph, SE67%10000m1018hPa27%
21-Apr-2024 00:00Scattered Clouds15°C2 mph, S35%10000m1016hPa29%
21-Apr-2024 03:00Broken Clouds8°C2 mph, SE57%10000m1016hPa56%
21-Apr-2024 06:00Broken Clouds7°C4 mph, SE55%10000m1017hPa64%
21-Apr-2024 09:00Light Rain7°C7 mph, S100%9173m1017hPa95%
21-Apr-2024 12:00Light Rain5°C7 mph, SW97%10000m1018hPa94%
21-Apr-2024 15:00Light Snow5°C7 mph, SW74%8501m1021hPa88%
21-Apr-2024 18:00Light Rain6°C4 mph, SW87%10000m1021hPa77%
21-Apr-2024 21:00Light Rain9°C7 mph, SW100%10000m1019hPa62%
22-Apr-2024 00:00Light Rain11°C9 mph, W100%10000m1016hPa50%
22-Apr-2024 03:00Overcast Clouds7°C2 mph, SW94%10000m1017hPa68%
22-Apr-2024 06:00Overcast Clouds4°C4 mph, SE100%10000m1019hPa78%
22-Apr-2024 09:00Broken Clouds2°C4 mph, SE63%10000m1020hPa87%
22-Apr-2024 12:00Scattered Clouds1°C4 mph, SE36%10000m1020hPa88%
22-Apr-2024 15:00Clear Sky8°C2 mph, SE7%10000m1018hPa57%
22-Apr-2024 18:00Clear Sky15°C2 mph, NW7%10000m1014hPa39%
22-Apr-2024 21:00Clear Sky17°C4 mph, NW8%10000m1011hPa32%